sensor_id;sensor_type;location;lat;lon;timestamp;P1;durP1;ratioP1;P2;durP2;ratioP2
72590;SDS011;60625;51.212;5.952;2022-08-19T00:03:24;27.90;;;21.90;;
72590;SDS011;60625;51.212;5.952;2022-08-19T00:08:24;27.10;;;22.40;;
72590;SDS011;60625;51.212;5.952;2022-08-19T00:13:25;24.70;;;20.10;;
72590;SDS011;60625;51.212;5.952;2022-08-19T00:18:28;24.50;;;20.50;;
72590;SDS011;60625;51.212;5.952;2022-08-19T00:23:29;25.10;;;19.80;;
72590;SDS011;60625;51.212;5.952;2022-08-19T00:28:31;20.70;;;17.40;;
72590;SDS011;60625;51.212;5.952;2022-08-19T00:33:33;25.90;;;20.40;;
72590;SDS011;60625;51.212;5.952;2022-08-19T00:38:36;26.30;;;20.90;;
72590;SDS011;60625;51.212;5.952;2022-08-19T00:43:43;22.70;;;18.20;;
72590;SDS011;60625;51.212;5.952;2022-08-19T00:48:44;26.40;;;19.30;;
72590;SDS011;60625;51.212;5.952;2022-08-19T00:53:44;25.70;;;21.20;;
72590;SDS011;60625;51.212;5.952;2022-08-19T00:58:46;26.60;;;21.30;;
72590;SDS011;60625;51.212;5.952;2022-08-19T01:03:47;29.10;;;22.00;;
72590;SDS011;60625;51.212;5.952;2022-08-19T01:08:50;23.10;;;19.40;;
72590;SDS011;60625;51.212;5.952;2022-08-19T01:13:54;24.00;;;18.80;;
72590;SDS011;60625;51.212;5.952;2022-08-19T01:18:55;23.70;;;18.80;;
72590;SDS011;60625;51.212;5.952;2022-08-19T01:23:56;25.50;;;21.00;;
72590;SDS011;60625;51.212;5.952;2022-08-19T01:29:00;27.50;;;21.40;;
72590;SDS011;60625;51.212;5.952;2022-08-19T01:34:01;31.90;;;22.00;;
72590;SDS011;60625;51.212;5.952;2022-08-19T01:39:06;31.80;;;23.70;;
72590;SDS011;60625;51.212;5.952;2022-08-19T01:44:10;33.50;;;24.10;;
72590;SDS011;60625;51.212;5.952;2022-08-19T01:49:11;35.20;;;25.90;;
72590;SDS011;60625;51.212;5.952;2022-08-19T01:54:15;33.10;;;25.30;;
72590;SDS011;60625;51.212;5.952;2022-08-19T01:59:19;31.00;;;23.90;;
72590;SDS011;60625;51.212;5.952;2022-08-19T02:04:20;31.50;;;23.10;;
72590;SDS011;60625;51.212;5.952;2022-08-19T02:09:21;26.00;;;20.20;;
72590;SDS011;60625;51.212;5.952;2022-08-19T02:14:22;28.10;;;23.00;;
72590;SDS011;60625;51.212;5.952;2022-08-19T02:19:23;29.30;;;23.70;;
72590;SDS011;60625;51.212;5.952;2022-08-19T02:24:27;30.80;;;23.00;;
72590;SDS011;60625;51.212;5.952;2022-08-19T02:29:28;31.10;;;24.20;;
72590;SDS011;60625;51.212;5.952;2022-08-19T02:34:29;32.90;;;25.40;;
72590;SDS011;60625;51.212;5.952;2022-08-19T02:39:30;33.50;;;25.30;;
72590;SDS011;60625;51.212;5.952;2022-08-19T02:44:34;29.10;;;22.30;;
72590;SDS011;60625;51.212;5.952;2022-08-19T02:49:34;32.00;;;24.00;;
72590;SDS011;60625;51.212;5.952;2022-08-19T02:54:36;31.80;;;22.40;;
72590;SDS011;60625;51.212;5.952;2022-08-19T02:59:37;31.70;;;23.40;;
72590;SDS011;60625;51.212;5.952;2022-08-19T03:04:40;30.30;;;23.60;;
72590;SDS011;60625;51.212;5.952;2022-08-19T03:09:42;32.60;;;24.40;;
72590;SDS011;60625;51.212;5.952;2022-08-19T03:14:43;33.20;;;24.10;;
72590;SDS011;60625;51.212;5.952;2022-08-19T03:19:44;29.30;;;22.40;;
72590;SDS011;60625;51.212;5.952;2022-08-19T03:24:47;33.20;;;22.30;;
72590;SDS011;60625;51.212;5.952;2022-08-19T03:29:48;33.60;;;22.20;;
72590;SDS011;60625;51.212;5.952;2022-08-19T03:34:51;32.60;;;23.20;;
72590;SDS011;60625;51.212;5.952;2022-08-19T03:39:54;31.60;;;22.60;;
72590;SDS011;60625;51.212;5.952;2022-08-19T03:44:55;34.40;;;23.70;;
72590;SDS011;60625;51.212;5.952;2022-08-19T03:49:55;32.80;;;23.30;;
72590;SDS011;60625;51.212;5.952;2022-08-19T03:54:56;32.40;;;25.10;;
72590;SDS011;60625;51.212;5.952;2022-08-19T03:59:56;33.70;;;24.70;;
72590;SDS011;60625;51.212;5.952;2022-08-19T04:04:59;31.10;;;21.90;;
72590;SDS011;60625;51.212;5.952;2022-08-19T04:10:04;34.40;;;24.00;;
72590;SDS011;60625;51.212;5.952;2022-08-19T04:15:06;34.40;;;25.10;;
72590;SDS011;60625;51.212;5.952;2022-08-19T04:20:08;33.00;;;24.30;;
72590;SDS011;60625;51.212;5.952;2022-08-19T04:25:10;32.00;;;23.60;;
72590;SDS011;60625;51.212;5.952;2022-08-19T04:30:12;38.10;;;24.70;;
72590;SDS011;60625;51.212;5.952;2022-08-19T04:35:13;36.50;;;24.70;;
72590;SDS011;60625;51.212;5.952;2022-08-19T04:40:14;34.10;;;24.80;;
72590;SDS011;60625;51.212;5.952;2022-08-19T04:45:36;30.80;;;22.90;;
72590;SDS011;60625;51.212;5.952;2022-08-19T04:50:40;35.60;;;25.40;;
72590;SDS011;60625;51.212;5.952;2022-08-19T04:55:42;35.10;;;24.80;;
72590;SDS011;60625;51.212;5.952;2022-08-19T05:00:43;33.60;;;23.80;;
72590;SDS011;60625;51.212;5.952;2022-08-19T05:05:45;32.80;;;23.00;;
72590;SDS011;60625;51.212;5.952;2022-08-19T05:10:50;34.50;;;23.70;;
72590;SDS011;60625;51.212;5.952;2022-08-19T05:15:56;38.60;;;24.90;;
72590;SDS011;60625;51.212;5.952;2022-08-19T05:20:57;37.70;;;23.60;;
72590;SDS011;60625;51.212;5.952;2022-08-19T05:26:17;33.30;;;23.10;;
72590;SDS011;60625;51.212;5.952;2022-08-19T05:31:18;41.70;;;25.60;;
72590;SDS011;60625;51.212;5.952;2022-08-19T05:36:19;38.10;;;25.60;;
72590;SDS011;60625;51.212;5.952;2022-08-19T05:41:21;36.90;;;24.90;;
72590;SDS011;60625;51.212;5.952;2022-08-19T05:46:32;38.80;;;24.90;;
72590;SDS011;60625;51.212;5.952;2022-08-19T05:51:35;48.10;;;27.80;;
72590;SDS011;60625;51.212;5.952;2022-08-19T05:56:40;44.20;;;29.20;;
72590;SDS011;60625;51.212;5.952;2022-08-19T06:01:47;52.40;;;28.60;;
72590;SDS011;60625;51.212;5.952;2022-08-19T06:06:53;44.20;;;26.20;;
72590;SDS011;60625;51.212;5.952;2022-08-19T06:11:58;43.20;;;26.60;;
72590;SDS011;60625;51.212;5.952;2022-08-19T06:17:00;43.20;;;27.00;;
72590;SDS011;60625;51.212;5.952;2022-08-19T06:22:02;43.70;;;24.10;;
72590;SDS011;60625;51.212;5.952;2022-08-19T06:27:04;45.80;;;27.00;;
72590;SDS011;60625;51.212;5.952;2022-08-19T06:32:08;46.50;;;26.70;;
72590;SDS011;60625;51.212;5.952;2022-08-19T06:37:08;43.40;;;26.10;;
72590;SDS011;60625;51.212;5.952;2022-08-19T06:42:10;40.10;;;24.00;;
72590;SDS011;60625;51.212;5.952;2022-08-19T06:47:19;41.90;;;24.40;;
72590;SDS011;60625;51.212;5.952;2022-08-19T06:52:20;41.40;;;23.20;;
72590;SDS011;60625;51.212;5.952;2022-08-19T06:57:22;39.90;;;23.40;;
72590;SDS011;60625;51.212;5.952;2022-08-19T07:02:24;40.00;;;22.80;;
72590;SDS011;60625;51.212;5.952;2022-08-19T07:07:26;34.10;;;18.30;;
72590;SDS011;60625;51.212;5.952;2022-08-19T07:12:29;37.70;;;20.00;;
72590;SDS011;60625;51.212;5.952;2022-08-19T07:17:34;35.10;;;19.00;;
72590;SDS011;60625;51.212;5.952;2022-08-19T07:22:38;33.10;;;19.10;;
72590;SDS011;60625;51.212;5.952;2022-08-19T07:27:40;35.50;;;19.50;;
72590;SDS011;60625;51.212;5.952;2022-08-19T07:32:41;35.70;;;19.30;;
72590;SDS011;60625;51.212;5.952;2022-08-19T07:37:43;35.30;;;19.70;;
72590;SDS011;60625;51.212;5.952;2022-08-19T07:42:47;30.80;;;18.00;;
72590;SDS011;60625;51.212;5.952;2022-08-19T07:47:47;32.20;;;18.00;;
72590;SDS011;60625;51.212;5.952;2022-08-19T07:52:48;35.60;;;20.30;;
72590;SDS011;60625;51.212;5.952;2022-08-19T07:57:50;34.40;;;19.50;;
72590;SDS011;60625;51.212;5.952;2022-08-19T08:02:53;35.20;;;18.60;;
72590;SDS011;60625;51.212;5.952;2022-08-19T08:07:55;28.10;;;16.20;;
72590;SDS011;60625;51.212;5.952;2022-08-19T08:13:14;30.80;;;18.50;;
72590;SDS011;60625;51.212;5.952;2022-08-19T08:18:15;28.10;;;16.20;;
72590;SDS011;60625;51.212;5.952;2022-08-19T08:23:15;27.90;;;16.40;;
72590;SDS011;60625;51.212;5.952;2022-08-19T08:28:26;27.80;;;15.80;;
72590;SDS011;60625;51.212;5.952;2022-08-19T08:33:30;23.20;;;12.50;;
72590;SDS011;60625;51.212;5.952;2022-08-19T08:38:31;25.70;;;13.70;;
72590;SDS011;60625;51.212;5.952;2022-08-19T08:43:35;25.40;;;12.40;;
72590;SDS011;60625;51.212;5.952;2022-08-19T08:53:55;19.80;;;10.90;;
72590;SDS011;60625;51.212;5.952;2022-08-19T08:59:03;21.90;;;10.20;;
72590;SDS011;60625;51.212;5.952;2022-08-19T09:04:10;20.50;;;10.40;;
72590;SDS011;60625;51.212;5.952;2022-08-19T09:09:32;20.60;;;10.30;;
72590;SDS011;60625;51.212;5.952;2022-08-19T09:25:14;15.40;;;9.20;;
72590;SDS011;60625;51.212;5.952;2022-08-19T09:30:24;17.10;;;9.40;;
72590;SDS011;60625;51.212;5.952;2022-08-19T09:35:29;17.60;;;9.00;;
72590;SDS011;60625;51.212;5.952;2022-08-19T09:40:30;14.70;;;9.90;;
72590;SDS011;60625;51.212;5.952;2022-08-19T09:45:31;15.80;;;9.30;;
72590;SDS011;60625;51.212;5.952;2022-08-19T09:50:32;16.90;;;10.10;;
72590;SDS011;60625;51.212;5.952;2022-08-19T09:55:34;18.30;;;10.90;;
72590;SDS011;60625;51.212;5.952;2022-08-19T10:00:37;15.20;;;9.90;;
72590;SDS011;60625;51.212;5.952;2022-08-19T10:05:38;17.00;;;10.80;;
72590;SDS011;60625;51.212;5.952;2022-08-19T10:10:51;17.30;;;10.20;;
72590;SDS011;60625;51.212;5.952;2022-08-19T10:15:54;17.90;;;9.20;;
72590;SDS011;60625;51.212;5.952;2022-08-19T10:21:09;17.70;;;9.60;;
72590;SDS011;60625;51.212;5.952;2022-08-19T10:26:14;16.80;;;9.00;;
72590;SDS011;60625;51.212;5.952;2022-08-19T10:31:25;15.80;;;8.50;;
72590;SDS011;60625;51.212;5.952;2022-08-19T10:36:33;12.90;;;7.70;;
72590;SDS011;60625;51.212;5.952;2022-08-19T10:41:37;17.30;;;7.70;;
72590;SDS011;60625;51.212;5.952;2022-08-19T10:46:41;12.40;;;6.90;;
72590;SDS011;60625;51.212;5.952;2022-08-19T10:51:42;11.00;;;7.10;;
72590;SDS011;60625;51.212;5.952;2022-08-19T10:57:01;11.10;;;5.50;;
72590;SDS011;60625;51.212;5.952;2022-08-19T11:02:05;10.70;;;5.70;;
72590;SDS011;60625;51.212;5.952;2022-08-19T11:07:10;8.70;;;5.40;;
72590;SDS011;60625;51.212;5.952;2022-08-19T11:12:12;9.10;;;3.70;;
72590;SDS011;60625;51.212;5.952;2022-08-19T11:17:12;11.70;;;5.70;;
72590;SDS011;60625;51.212;5.952;2022-08-19T11:22:13;10.10;;;4.50;;
72590;SDS011;60625;51.212;5.952;2022-08-19T11:27:14;8.20;;;4.10;;
72590;SDS011;60625;51.212;5.952;2022-08-19T11:32:15;9.60;;;4.60;;
72590;SDS011;60625;51.212;5.952;2022-08-19T11:37:16;6.90;;;3.30;;
72590;SDS011;60625;51.212;5.952;2022-08-19T11:42:17;7.60;;;4.00;;
72590;SDS011;60625;51.212;5.952;2022-08-19T11:47:36;8.70;;;4.80;;
72590;SDS011;60625;51.212;5.952;2022-08-19T11:52:38;10.70;;;4.00;;
72590;SDS011;60625;51.212;5.952;2022-08-19T11:57:39;8.20;;;3.00;;
72590;SDS011;60625;51.212;5.952;2022-08-19T12:02:43;9.30;;;4.00;;
72590;SDS011;60625;51.212;5.952;2022-08-19T12:07:44;9.10;;;4.70;;
72590;SDS011;60625;51.212;5.952;2022-08-19T12:12:46;7.90;;;4.20;;
72590;SDS011;60625;51.212;5.952;2022-08-19T12:17:47;9.30;;;3.80;;
72590;SDS011;60625;51.212;5.952;2022-08-19T12:22:49;8.20;;;3.70;;
72590;SDS011;60625;51.212;5.952;2022-08-19T12:27:51;8.40;;;4.10;;
72590;SDS011;60625;51.212;5.952;2022-08-19T12:32:52;7.90;;;3.60;;
72590;SDS011;60625;51.212;5.952;2022-08-19T12:37:53;6.70;;;3.20;;
72590;SDS011;60625;51.212;5.952;2022-08-19T12:42:54;6.10;;;3.50;;
72590;SDS011;60625;51.212;5.952;2022-08-19T12:47:54;5.90;;;3.20;;
72590;SDS011;60625;51.212;5.952;2022-08-19T12:52:56;7.70;;;3.10;;
72590;SDS011;60625;51.212;5.952;2022-08-19T12:57:57;8.80;;;4.00;;
72590;SDS011;60625;51.212;5.952;2022-08-19T13:02:58;7.40;;;3.70;;
72590;SDS011;60625;51.212;5.952;2022-08-19T13:08:00;6.60;;;2.50;;
72590;SDS011;60625;51.212;5.952;2022-08-19T13:13:03;5.80;;;2.50;;
72590;SDS011;60625;51.212;5.952;2022-08-19T13:18:10;5.60;;;2.30;;
72590;SDS011;60625;51.212;5.952;2022-08-19T13:23:11;7.40;;;2.50;;
72590;SDS011;60625;51.212;5.952;2022-08-19T13:28:11;8.40;;;3.50;;
72590;SDS011;60625;51.212;5.952;2022-08-19T13:33:12;6.20;;;3.10;;
72590;SDS011;60625;51.212;5.952;2022-08-19T13:38:19;6.90;;;3.70;;
72590;SDS011;60625;51.212;5.952;2022-08-19T13:43:25;7.80;;;4.10;;
72590;SDS011;60625;51.212;5.952;2022-08-19T13:48:26;6.60;;;3.70;;
72590;SDS011;60625;51.212;5.952;2022-08-19T13:53:27;6.40;;;3.40;;
72590;SDS011;60625;51.212;5.952;2022-08-19T13:58:27;5.60;;;2.80;;
72590;SDS011;60625;51.212;5.952;2022-08-19T14:03:28;6.10;;;2.70;;
72590;SDS011;60625;51.212;5.952;2022-08-19T14:08:29;6.50;;;3.00;;
72590;SDS011;60625;51.212;5.952;2022-08-19T14:13:32;4.00;;;1.70;;
72590;SDS011;60625;51.212;5.952;2022-08-19T14:18:34;4.70;;;1.90;;
72590;SDS011;60625;51.212;5.952;2022-08-19T14:23:35;4.20;;;2.30;;
72590;SDS011;60625;51.212;5.952;2022-08-19T14:28:36;5.60;;;2.10;;
72590;SDS011;60625;51.212;5.952;2022-08-19T14:33:37;4.70;;;2.40;;
72590;SDS011;60625;51.212;5.952;2022-08-19T14:38:38;6.30;;;2.20;;
72590;SDS011;60625;51.212;5.952;2022-08-19T14:43:40;5.70;;;2.00;;
72590;SDS011;60625;51.212;5.952;2022-08-19T14:48:42;3.90;;;1.70;;
72590;SDS011;60625;51.212;5.952;2022-08-19T14:53:44;4.30;;;2.10;;
72590;SDS011;60625;51.212;5.952;2022-08-19T14:58:45;5.90;;;2.20;;
72590;SDS011;60625;51.212;5.952;2022-08-19T15:03:47;4.40;;;2.40;;
72590;SDS011;60625;51.212;5.952;2022-08-19T15:08:49;5.40;;;2.70;;
72590;SDS011;60625;51.212;5.952;2022-08-19T15:13:52;5.70;;;2.60;;
72590;SDS011;60625;51.212;5.952;2022-08-19T15:18:56;5.30;;;2.50;;
72590;SDS011;60625;51.212;5.952;2022-08-19T15:23:58;5.90;;;2.80;;
72590;SDS011;60625;51.212;5.952;2022-08-19T15:29:01;5.90;;;2.30;;
72590;SDS011;60625;51.212;5.952;2022-08-19T15:34:03;4.70;;;2.30;;
72590;SDS011;60625;51.212;5.952;2022-08-19T15:39:05;5.10;;;2.80;;
72590;SDS011;60625;51.212;5.952;2022-08-19T15:44:12;5.00;;;2.40;;
72590;SDS011;60625;51.212;5.952;2022-08-19T15:49:17;6.20;;;2.20;;
72590;SDS011;60625;51.212;5.952;2022-08-19T15:54:20;7.30;;;2.20;;
72590;SDS011;60625;51.212;5.952;2022-08-19T15:59:21;5.80;;;2.70;;
72590;SDS011;60625;51.212;5.952;2022-08-19T16:04:40;6.40;;;2.30;;
72590;SDS011;60625;51.212;5.952;2022-08-19T16:09:59;6.50;;;2.40;;
72590;SDS011;60625;51.212;5.952;2022-08-19T16:15:00;6.50;;;2.40;;
72590;SDS011;60625;51.212;5.952;2022-08-19T16:20:03;5.20;;;2.50;;
72590;SDS011;60625;51.212;5.952;2022-08-19T16:25:06;6.90;;;2.70;;
72590;SDS011;60625;51.212;5.952;2022-08-19T16:30:09;8.00;;;3.10;;
72590;SDS011;60625;51.212;5.952;2022-08-19T16:35:10;5.80;;;2.50;;
72590;SDS011;60625;51.212;5.952;2022-08-19T16:40:11;7.40;;;2.50;;
72590;SDS011;60625;51.212;5.952;2022-08-19T16:45:12;5.90;;;2.30;;
72590;SDS011;60625;51.212;5.952;2022-08-19T16:50:12;5.90;;;2.70;;
72590;SDS011;60625;51.212;5.952;2022-08-19T16:55:13;5.30;;;3.10;;
72590;SDS011;60625;51.212;5.952;2022-08-19T17:00:14;5.70;;;2.90;;
72590;SDS011;60625;51.212;5.952;2022-08-19T17:05:15;8.70;;;3.10;;
72590;SDS011;60625;51.212;5.952;2022-08-19T17:10:16;5.80;;;2.80;;
72590;SDS011;60625;51.212;5.952;2022-08-19T17:15:20;5.30;;;2.70;;
72590;SDS011;60625;51.212;5.952;2022-08-19T17:20:22;6.90;;;3.30;;
72590;SDS011;60625;51.212;5.952;2022-08-19T17:25:24;7.00;;;3.30;;
72590;SDS011;60625;51.212;5.952;2022-08-19T17:30:25;7.50;;;2.70;;
72590;SDS011;60625;51.212;5.952;2022-08-19T17:35:26;7.10;;;2.60;;
72590;SDS011;60625;51.212;5.952;2022-08-19T17:40:27;5.20;;;2.40;;
72590;SDS011;60625;51.212;5.952;2022-08-19T17:45:27;6.10;;;3.20;;
72590;SDS011;60625;51.212;5.952;2022-08-19T17:50:28;9.50;;;3.30;;
72590;SDS011;60625;51.212;5.952;2022-08-19T17:55:29;12.40;;;3.70;;
72590;SDS011;60625;51.212;5.952;2022-08-19T18:00:32;9.60;;;4.20;;
72590;SDS011;60625;51.212;5.952;2022-08-19T18:05:40;4.90;;;2.40;;
72590;SDS011;60625;51.212;5.952;2022-08-19T18:10:42;10.30;;;2.50;;
72590;SDS011;60625;51.212;5.952;2022-08-19T18:15:43;5.40;;;2.00;;
72590;SDS011;60625;51.212;5.952;2022-08-19T18:20:43;8.40;;;2.00;;
72590;SDS011;60625;51.212;5.952;2022-08-19T18:25:45;4.20;;;1.70;;
72590;SDS011;60625;51.212;5.952;2022-08-19T18:30:45;6.70;;;1.80;;
72590;SDS011;60625;51.212;5.952;2022-08-19T18:35:48;4.90;;;1.70;;
72590;SDS011;60625;51.212;5.952;2022-08-19T18:40:51;6.00;;;2.00;;
72590;SDS011;60625;51.212;5.952;2022-08-19T18:46:10;3.80;;;1.20;;
72590;SDS011;60625;51.212;5.952;2022-08-19T18:51:30;6.20;;;2.20;;
72590;SDS011;60625;51.212;5.952;2022-08-19T18:56:33;3.90;;;1.70;;
72590;SDS011;60625;51.212;5.952;2022-08-19T19:01:39;6.00;;;1.30;;
72590;SDS011;60625;51.212;5.952;2022-08-19T19:06:47;9.10;;;2.10;;
72590;SDS011;60625;51.212;5.952;2022-08-19T19:11:51;5.10;;;1.70;;
72590;SDS011;60625;51.212;5.952;2022-08-19T19:16:53;3.90;;;1.30;;
72590;SDS011;60625;51.212;5.952;2022-08-19T19:21:54;5.40;;;2.20;;
72590;SDS011;60625;51.212;5.952;2022-08-19T19:26:57;5.40;;;1.90;;
72590;SDS011;60625;51.212;5.952;2022-08-19T19:31:59;7.80;;;2.20;;
72590;SDS011;60625;51.212;5.952;2022-08-19T19:37:00;8.40;;;2.30;;
72590;SDS011;60625;51.212;5.952;2022-08-19T19:42:08;4.50;;;2.00;;
72590;SDS011;60625;51.212;5.952;2022-08-19T19:47:12;7.00;;;2.70;;
72590;SDS011;60625;51.212;5.952;2022-08-19T19:52:14;7.50;;;2.00;;
72590;SDS011;60625;51.212;5.952;2022-08-19T19:57:14;7.20;;;2.90;;
72590;SDS011;60625;51.212;5.952;2022-08-19T20:02:15;7.20;;;3.00;;
72590;SDS011;60625;51.212;5.952;2022-08-19T20:07:17;5.90;;;2.90;;
72590;SDS011;60625;51.212;5.952;2022-08-19T20:12:37;7.20;;;3.00;;
72590;SDS011;60625;51.212;5.952;2022-08-19T20:17:38;10.20;;;2.90;;
72590;SDS011;60625;51.212;5.952;2022-08-19T20:22:42;5.70;;;2.60;;
72590;SDS011;60625;51.212;5.952;2022-08-19T20:27:43;7.30;;;2.90;;
72590;SDS011;60625;51.212;5.952;2022-08-19T20:32:44;8.40;;;3.30;;
72590;SDS011;60625;51.212;5.952;2022-08-19T20:37:48;6.90;;;2.80;;
72590;SDS011;60625;51.212;5.952;2022-08-19T20:42:50;5.70;;;3.40;;
72590;SDS011;60625;51.212;5.952;2022-08-19T20:47:50;8.60;;;3.40;;
72590;SDS011;60625;51.212;5.952;2022-08-19T20:52:51;6.70;;;3.50;;
72590;SDS011;60625;51.212;5.952;2022-08-19T20:57:52;7.70;;;3.50;;
72590;SDS011;60625;51.212;5.952;2022-08-19T21:02:52;6.00;;;3.50;;
72590;SDS011;60625;51.212;5.952;2022-08-19T21:07:53;6.90;;;3.30;;
72590;SDS011;60625;51.212;5.952;2022-08-19T21:12:53;7.60;;;3.60;;
72590;SDS011;60625;51.212;5.952;2022-08-19T21:17:55;6.20;;;2.90;;
72590;SDS011;60625;51.212;5.952;2022-08-19T21:22:56;5.90;;;3.00;;
72590;SDS011;60625;51.212;5.952;2022-08-19T21:27:56;7.80;;;3.60;;
72590;SDS011;60625;51.212;5.952;2022-08-19T21:32:59;7.50;;;4.30;;
72590;SDS011;60625;51.212;5.952;2022-08-19T21:38:00;7.80;;;3.50;;
72590;SDS011;60625;51.212;5.952;2022-08-19T21:43:01;6.80;;;3.60;;
72590;SDS011;60625;51.212;5.952;2022-08-19T21:48:02;6.00;;;3.30;;
72590;SDS011;60625;51.212;5.952;2022-08-19T21:53:04;7.80;;;3.70;;
72590;SDS011;60625;51.212;5.952;2022-08-19T21:58:04;9.60;;;3.80;;
72590;SDS011;60625;51.212;5.952;2022-08-19T22:03:05;9.60;;;3.70;;
72590;SDS011;60625;51.212;5.952;2022-08-19T22:08:06;8.90;;;3.60;;
72590;SDS011;60625;51.212;5.952;2022-08-19T22:13:07;8.90;;;3.70;;
72590;SDS011;60625;51.212;5.952;2022-08-19T22:18:09;7.40;;;3.70;;
72590;SDS011;60625;51.212;5.952;2022-08-19T22:23:09;9.50;;;4.20;;
72590;SDS011;60625;51.212;5.952;2022-08-19T22:28:12;11.00;;;4.40;;
72590;SDS011;60625;51.212;5.952;2022-08-19T22:33:18;9.40;;;4.30;;
72590;SDS011;60625;51.212;5.952;2022-08-19T22:38:21;9.60;;;3.80;;
72590;SDS011;60625;51.212;5.952;2022-08-19T22:43:27;8.00;;;4.10;;
72590;SDS011;60625;51.212;5.952;2022-08-19T22:48:31;8.20;;;4.40;;
72590;SDS011;60625;51.212;5.952;2022-08-19T22:53:41;10.30;;;5.00;;
72590;SDS011;60625;51.212;5.952;2022-08-19T22:58:45;8.20;;;4.30;;
72590;SDS011;60625;51.212;5.952;2022-08-19T23:03:47;9.90;;;4.50;;
72590;SDS011;60625;51.212;5.952;2022-08-19T23:08:47;14.10;;;5.30;;
72590;SDS011;60625;51.212;5.952;2022-08-19T23:13:48;8.30;;;5.10;;
72590;SDS011;60625;51.212;5.952;2022-08-19T23:18:48;9.40;;;5.10;;
72590;SDS011;60625;51.212;5.952;2022-08-19T23:23:48;8.70;;;4.70;;
72590;SDS011;60625;51.212;5.952;2022-08-19T23:28:49;8.70;;;4.70;;
72590;SDS011;60625;51.212;5.952;2022-08-19T23:34:08;11.60;;;6.00;;
72590;SDS011;60625;51.212;5.952;2022-08-19T23:39:09;11.00;;;5.60;;
72590;SDS011;60625;51.212;5.952;2022-08-19T23:44:09;12.00;;;5.90;;
72590;SDS011;60625;51.212;5.952;2022-08-19T23:49:10;10.90;;;5.40;;
72590;SDS011;60625;51.212;5.952;2022-08-19T23:54:13;10.80;;;5.70;;
72590;SDS011;60625;51.212;5.952;2022-08-19T23:59:14;11.70;;;6.70;;
